createdAt,value
2022-09-01T00:00:01.603Z,100.00
2022-09-01T00:02:33.445Z,100.00
2022-09-01T00:05:01.942Z,100.00
2022-09-01T00:07:31.558Z,100.00
2022-09-01T00:10:01.577Z,100.00
2022-09-01T00:12:30.919Z,100.00
2022-09-01T00:14:59.693Z,100.00
2022-09-01T00:17:28.455Z,100.00
2022-09-01T00:19:56.486Z,100.00
2022-09-01T00:22:24.501Z,100.00
2022-09-01T00:24:52.441Z,100.00
2022-09-01T00:27:21.931Z,100.00
2022-09-01T00:29:58.436Z,100.00
2022-09-01T00:32:26.331Z,100.00
2022-09-01T00:34:54.296Z,100.00
2022-09-01T00:37:22.189Z,100.00
2022-09-01T00:39:50.213Z,100.00
2022-09-01T00:42:18.311Z,100.00
2022-09-01T00:44:47.669Z,100.00
2022-09-01T00:47:16.140Z,100.00
2022-09-01T00:49:48.111Z,100.00
2022-09-01T00:52:20.310Z,100.00
2022-09-01T00:54:53.206Z,100.00
2022-09-01T00:57:21.306Z,100.00
2022-09-01T00:59:55.950Z,100.00
2022-09-01T01:02:24.209Z,100.00
2022-09-01T01:04:52.769Z,100.00
2022-09-01T01:07:23.804Z,100.00
2022-09-01T01:09:52.396Z,100.00
2022-09-01T01:12:21.106Z,100.00
2022-09-01T01:14:51.200Z,100.00
2022-09-01T01:17:22.470Z,100.00
2022-09-01T01:20:11.376Z,100.00
2022-09-01T01:23:06.455Z,100.00
2022-09-01T01:25:40.934Z,100.00
2022-09-01T01:28:15.756Z,100.00
2022-09-01T01:30:51.273Z,100.00
2022-09-01T01:33:21.782Z,100.00
2022-09-01T01:35:52.703Z,100.00
2022-09-01T01:38:22.876Z,100.00
2022-09-01T01:40:54.457Z,100.00
2022-09-01T01:43:23.911Z,100.00
2022-09-01T01:45:54.632Z,100.00
2022-09-01T01:48:27.164Z,100.00
2022-09-01T01:50:58.186Z,100.00
2022-09-01T01:53:26.509Z,100.00
2022-09-01T01:55:56.074Z,100.00
2022-09-01T01:58:24.575Z,100.00
2022-09-01T02:00:54.968Z,100.00
2022-09-01T02:03:27.009Z,100.00
2022-09-01T02:05:56.812Z,100.00
2022-09-01T02:08:26.192Z,100.00
2022-09-01T02:10:57.816Z,100.00
2022-09-01T02:13:31.211Z,100.00
2022-09-01T02:16:02.628Z,100.00
2022-09-01T02:18:35.983Z,100.00
2022-09-01T02:21:15.007Z,100.00
2022-09-01T02:23:47.145Z,100.00
2022-09-01T02:26:19.021Z,100.00
2022-09-01T02:28:55.702Z,100.00
2022-09-01T02:31:28.925Z,100.00
2022-09-01T02:34:01.107Z,100.00
2022-09-01T02:36:32.872Z,100.00
2022-09-01T02:39:03.830Z,100.00
2022-09-01T02:41:34.599Z,100.00
2022-09-01T02:44:04.093Z,100.00
2022-09-01T02:46:32.579Z,100.00
2022-09-01T02:49:01.616Z,100.00
2022-09-01T02:51:29.633Z,100.00
2022-09-01T02:53:58.566Z,100.00
2022-09-01T02:56:27.401Z,100.00
2022-09-01T02:58:57.155Z,100.00
2022-09-01T03:01:30.081Z,100.00
2022-09-01T03:04:00.973Z,100.00
2022-09-01T03:06:30.734Z,100.00
2022-09-01T03:09:00.724Z,100.00
2022-09-01T03:11:30.915Z,100.00
2022-09-01T03:14:01.051Z,100.00
2022-09-01T03:16:31.428Z,100.00
2022-09-01T03:18:59.761Z,100.00
2022-09-01T03:21:27.984Z,100.00
2022-09-01T03:23:58.156Z,100.00
2022-09-01T03:26:26.213Z,100.00
2022-09-01T03:28:54.907Z,100.00
2022-09-01T03:31:27.542Z,100.00
2022-09-01T03:34:03.284Z,100.00
2022-09-01T03:36:34.511Z,100.00
2022-09-01T03:39:03.283Z,100.00
2022-09-01T03:41:33.259Z,100.00
2022-09-01T03:44:01.410Z,100.00
2022-09-01T03:46:36.934Z,100.00
2022-09-01T03:49:08.109Z,100.00
2022-09-01T03:51:39.453Z,100.00
2022-09-01T03:54:09.155Z,100.00
2022-09-01T03:56:41.061Z,100.00
2022-09-01T03:59:17.079Z,100.00
2022-09-01T04:01:47.348Z,100.00
2022-09-01T04:04:16.638Z,100.00
2022-09-01T04:06:46.348Z,100.00
2022-09-01T04:09:15.094Z,100.00
2022-09-01T04:11:46.867Z,100.00
2022-09-01T04:14:16.745Z,100.00
2022-09-01T04:17:05.011Z,100.00
2022-09-01T04:19:36.919Z,100.00
2022-09-01T04:22:07.909Z,100.00
2022-09-01T04:24:46.764Z,100.00
2022-09-01T04:27:18.041Z,100.00
2022-09-01T04:29:46.998Z,100.00
2022-09-01T04:32:16.991Z,100.00
2022-09-01T04:34:48.184Z,100.00
2022-09-01T04:37:21.289Z,100.00
2022-09-01T04:39:57.705Z,100.00
2022-09-01T04:42:29.076Z,100.00
2022-09-01T04:45:00.028Z,100.00
2022-09-01T04:47:36.314Z,100.00
2022-09-01T04:50:13.859Z,100.00
2022-09-01T04:52:45.654Z,100.00
2022-09-01T04:55:29.681Z,100.00
2022-09-01T04:57:59.190Z,100.00
2022-09-01T05:00:32.253Z,100.00
2022-09-01T05:03:05.237Z,100.00
2022-09-01T05:05:54.428Z,100.00
2022-09-01T05:08:24.948Z,100.00
2022-09-01T05:10:57.062Z,100.00
2022-09-01T05:13:40.357Z,100.00
2022-09-01T05:16:13.179Z,100.00
2022-09-01T05:18:47.550Z,100.00
2022-09-01T05:21:18.504Z,100.00
2022-09-01T05:23:47.120Z,100.00
2022-09-01T05:26:18.180Z,100.00
2022-09-01T05:28:51.152Z,100.00
2022-09-01T05:31:19.667Z,100.00
2022-09-01T05:33:51.824Z,100.00
2022-09-01T05:36:23.032Z,100.00
2022-09-01T05:38:52.512Z,100.00
2022-09-01T05:41:23.859Z,100.00
2022-09-01T05:43:59.437Z,100.00
2022-09-01T05:46:28.692Z,100.00
2022-09-01T05:48:59.799Z,100.00
2022-09-01T05:51:46.488Z,100.00
2022-09-01T05:54:19.343Z,100.00
2022-09-01T05:56:48.876Z,100.00
2022-09-01T05:59:24.989Z,100.00
2022-09-01T06:01:58.186Z,100.00
2022-09-01T06:04:29.994Z,100.00
2022-09-01T06:07:08.416Z,100.00
2022-09-01T06:09:41.571Z,100.00
2022-09-01T06:12:17.353Z,100.00
2022-09-01T06:14:47.567Z,100.00
2022-09-01T06:17:19.484Z,100.00
2022-09-01T06:19:49.030Z,100.00
2022-09-01T06:22:17.300Z,100.00
2022-09-01T06:24:47.364Z,100.00
2022-09-01T06:27:20.406Z,100.00
2022-09-01T06:29:53.685Z,100.00
2022-09-01T06:32:22.141Z,100.00
2022-09-01T06:34:51.431Z,100.00
2022-09-01T06:37:22.883Z,100.00
2022-09-01T06:39:54.268Z,100.00
2022-09-01T06:42:24.672Z,100.00
2022-09-01T06:44:57.979Z,100.00
2022-09-01T06:47:28.542Z,100.00
2022-09-01T06:49:59.069Z,100.00
2022-09-01T06:52:28.464Z,100.00
2022-09-01T06:54:57.804Z,100.00
2022-09-01T07:00:20.923Z,100.00
2022-09-01T07:02:57.163Z,100.00
2022-09-01T07:06:04.645Z,100.00
2022-09-01T07:16:30.453Z,100.00
2022-09-01T07:17:26.489Z,100.00
2022-09-01T07:19:56.159Z,100.00
2022-09-01T07:25:16.789Z,100.00
2022-09-01T07:28:04.065Z,100.00
2022-09-01T07:30:33.439Z,100.00
2022-09-01T07:44:48.428Z,100.00
2022-09-01T07:47:53.093Z,100.00
2022-09-01T07:50:40.344Z,100.00
2022-09-01T07:53:12.863Z,100.00
2022-09-01T07:55:43.817Z,100.00
2022-09-01T07:58:13.073Z,100.00
2022-09-01T08:00:46.274Z,100.00
2022-09-01T08:03:15.707Z,100.00
2022-09-01T08:05:43.787Z,100.00
2022-09-01T08:08:20.432Z,100.00
2022-09-01T08:10:51.460Z,100.00
2022-09-01T08:13:22.269Z,100.00
2022-09-01T08:16:07.405Z,100.00
2022-09-01T08:18:52.066Z,100.00
2022-09-01T08:21:28.470Z,100.00
2022-09-01T08:24:00.005Z,100.00
2022-09-01T08:26:29.954Z,100.00
2022-09-01T08:28:58.240Z,100.00
2022-09-01T08:31:32.738Z,100.00
2022-09-01T08:34:01.653Z,100.00
2022-09-01T08:36:29.932Z,100.00
2022-09-01T08:38:58.525Z,100.00
2022-09-01T08:41:46.743Z,100.00
2022-09-01T08:44:30.501Z,100.00
2022-09-01T08:47:03.597Z,100.00
2022-09-01T08:49:42.947Z,100.00
2022-09-01T08:52:20.912Z,100.00
2022-09-01T08:54:54.274Z,100.00
2022-09-01T08:57:30.718Z,100.00
2022-09-01T09:00:20.269Z,100.00
2022-09-01T09:03:00.342Z,100.00
2022-09-01T09:05:40.050Z,100.00
2022-09-01T09:08:34.676Z,100.00
2022-09-01T09:11:05.672Z,100.00
2022-09-01T09:13:54.094Z,100.00
2022-09-01T09:16:25.389Z,100.00
2022-09-01T09:18:56.677Z,100.00
2022-09-01T09:21:30.090Z,100.00
2022-09-01T09:24:05.190Z,100.00
2022-09-01T09:26:48.812Z,100.00
2022-09-01T09:29:20.578Z,100.00
2022-09-01T09:31:50.711Z,100.00
2022-09-01T09:34:32.650Z,100.00
2022-09-01T09:37:17.432Z,100.00
2022-09-01T09:39:45.479Z,100.00
2022-09-01T09:42:16.056Z,100.00
2022-09-01T09:44:51.145Z,100.00
2022-09-01T09:47:43.713Z,100.00
2022-09-01T09:50:20.079Z,100.00
2022-09-01T09:52:49.417Z,100.00
2022-09-01T09:55:26.996Z,100.00
2022-09-01T09:57:58.806Z,100.00
2022-09-01T10:00:30.970Z,100.00
2022-09-01T10:03:04.600Z,100.00
2022-09-01T10:05:43.275Z,100.00
2022-09-01T10:08:15.953Z,100.00
2022-09-01T10:10:57.293Z,100.00
2022-09-01T10:13:29.079Z,100.00
2022-09-01T10:16:03.754Z,100.00
2022-09-01T10:18:42.025Z,100.00
2022-09-01T10:21:15.831Z,100.00
2022-09-01T10:23:44.817Z,100.00
2022-09-01T10:26:19.015Z,100.00
2022-09-01T10:28:51.347Z,100.00
2022-09-01T10:31:23.133Z,100.00
2022-09-01T10:33:51.514Z,100.00
2022-09-01T10:36:24.439Z,100.00
2022-09-01T10:38:54.516Z,100.00
2022-09-01T10:42:07.082Z,100.00
2022-09-01T10:44:38.787Z,100.00
2022-09-01T10:47:25.300Z,100.00
2022-09-01T10:50:10.423Z,100.00
2022-09-01T10:53:01.726Z,100.00
2022-09-01T10:55:38.395Z,100.00
2022-09-01T11:05:16.194Z,100.00
2022-09-01T11:08:09.192Z,100.00
2022-09-01T11:10:55.670Z,100.00
2022-09-01T11:13:32.646Z,100.00
2022-09-01T11:19:41.217Z,100.00
2022-09-01T11:22:26.465Z,100.00
2022-09-01T11:25:39.356Z,100.00
2022-09-01T11:28:43.030Z,100.00
2022-09-01T11:31:27.221Z,100.00
2022-09-01T11:34:04.362Z,100.00
2022-09-01T11:36:36.173Z,100.00
2022-09-01T11:39:11.056Z,100.00
2022-09-01T11:41:57.441Z,100.00
2022-09-01T11:44:35.079Z,100.00
2022-09-01T11:47:14.026Z,100.00
2022-09-01T11:50:06.918Z,100.00
2022-09-01T11:52:37.815Z,100.00
2022-09-01T11:55:08.987Z,100.00
2022-09-01T11:57:40.158Z,100.00
2022-09-01T12:00:13.579Z,100.00
2022-09-01T12:02:46.895Z,100.00
2022-09-01T12:05:28.825Z,100.00
2022-09-01T12:08:00.534Z,100.00
2022-09-01T12:10:34.854Z,100.00
2022-09-01T12:13:09.069Z,100.00
2022-09-01T12:16:00.400Z,100.00
2022-09-01T12:18:32.895Z,100.00
2022-09-01T12:21:03.634Z,100.00
2022-09-01T12:23:34.390Z,100.00
2022-09-01T12:26:07.616Z,100.00
2022-09-01T12:28:41.651Z,100.00
2022-09-01T12:31:15.029Z,100.00
2022-09-01T12:33:44.527Z,100.00
2022-09-01T12:36:15.540Z,100.00
2022-09-01T12:38:43.533Z,100.00
2022-09-01T12:41:28.898Z,100.00
2022-09-01T12:44:17.557Z,100.00
2022-09-01T12:46:46.985Z,100.00
2022-09-01T12:49:19.734Z,100.00
2022-09-01T12:51:48.697Z,100.00
2022-09-01T12:54:17.232Z,100.00
2022-09-01T12:56:52.281Z,100.00
2022-09-01T12:59:29.928Z,100.00
2022-09-01T13:02:32.451Z,100.00
2022-09-01T13:05:31.169Z,100.00
2022-09-01T13:08:02.849Z,100.00
2022-09-01T13:10:34.439Z,100.00
2022-09-01T13:13:03.908Z,100.00
2022-09-01T13:15:32.151Z,100.00
2022-09-01T13:18:00.210Z,100.00
2022-09-01T13:20:28.136Z,100.00
2022-09-01T13:22:56.068Z,100.00
2022-09-01T13:25:24.837Z,100.00
2022-09-01T13:27:54.930Z,100.00
2022-09-01T13:30:28.294Z,100.00
2022-09-01T13:35:57.081Z,100.00
2022-09-01T13:38:25.226Z,100.00
2022-09-01T13:40:53.409Z,100.00
2022-09-01T13:43:24.056Z,100.00
2022-09-01T13:45:59.032Z,100.00
2022-09-01T13:49:02.457Z,100.00
2022-09-01T13:51:26.340Z,100.00
2022-09-01T13:53:54.601Z,100.00
2022-09-01T13:56:22.698Z,100.00
2022-09-01T13:58:50.930Z,100.00
2022-09-01T14:01:20.382Z,100.00
2022-09-01T14:03:51.900Z,100.00
2022-09-01T14:06:21.430Z,100.00
2022-09-01T14:08:50.145Z,100.00
2022-09-01T14:11:20.993Z,100.00
2022-09-01T14:13:48.852Z,100.00
2022-09-01T14:16:16.952Z,100.00
2022-09-01T14:18:46.217Z,100.00
2022-09-01T14:21:16.995Z,100.00
2022-09-01T14:23:45.864Z,100.00
2022-09-01T14:26:16.335Z,100.00
2022-09-01T14:28:47.578Z,100.00
2022-09-01T14:31:17.729Z,100.00
2022-09-01T14:33:47.351Z,100.00
2022-09-01T14:36:20.016Z,100.00
2022-09-01T14:38:49.160Z,100.00
2022-09-01T14:41:21.944Z,100.00
2022-09-01T14:43:50.124Z,100.00
2022-09-01T14:46:20.398Z,100.00
2022-09-01T14:48:50.729Z,100.00
2022-09-01T14:51:24.604Z,100.00
2022-09-01T14:53:53.666Z,100.00
2022-09-01T14:56:22.076Z,100.00
2022-09-01T14:58:50.711Z,100.00
2022-09-01T15:01:34.289Z,100.00
2022-09-01T15:04:04.486Z,100.00
2022-09-01T15:06:33.892Z,100.00
2022-09-01T15:09:03.267Z,100.00
2022-09-01T15:11:31.176Z,100.00
2022-09-01T15:13:59.606Z,100.00
2022-09-01T15:16:28.343Z,99.79
2022-09-01T15:18:56.506Z,100.00
2022-09-01T15:21:32.102Z,100.00
2022-09-01T15:24:01.175Z,100.00
2022-09-01T15:26:30.257Z,100.00
2022-09-01T15:28:58.539Z,92.39
2022-09-01T15:31:32.515Z,86.55
2022-09-01T15:34:02.865Z,84.08
2022-09-01T15:36:33.125Z,82.59
2022-09-01T15:39:01.586Z,79.18
2022-09-01T15:41:31.486Z,73.03
2022-09-01T15:44:00.397Z,78.06
2022-09-01T15:46:32.649Z,85.34
2022-09-01T15:49:01.022Z,87.31
2022-09-01T15:51:33.933Z,93.76
2022-09-01T15:54:04.809Z,92.31
2022-09-01T15:56:33.035Z,93.14
2022-09-01T15:59:02.315Z,99.60
2022-09-01T16:01:32.386Z,98.12
2022-09-01T16:04:01.195Z,100.00
2022-09-01T16:06:29.350Z,100.00
2022-09-01T16:08:58.996Z,96.88
2022-09-01T16:11:27.402Z,95.87
2022-09-01T16:13:55.940Z,90.80
2022-09-01T16:16:38.624Z,91.51
2022-09-01T16:19:19.155Z,95.53
2022-09-01T16:21:54.037Z,93.73
2022-09-01T16:24:23.482Z,100.00
2022-09-01T16:26:51.431Z,100.00
2022-09-01T16:29:28.952Z,100.00
2022-09-01T16:31:57.622Z,100.00
2022-09-01T16:34:28.308Z,100.00
2022-09-01T16:37:05.695Z,100.00
2022-09-01T16:39:47.101Z,100.00
2022-09-01T16:42:26.606Z,100.00
2022-09-01T16:45:05.162Z,100.00
2022-09-01T16:47:44.865Z,100.00
2022-09-01T16:50:21.844Z,100.00
2022-09-01T16:53:18.923Z,100.00
2022-09-01T16:56:06.199Z,100.00
2022-09-01T16:58:45.752Z,100.00
2022-09-01T17:01:31.268Z,100.00
2022-09-01T17:04:13.079Z,100.00
2022-09-01T17:06:51.766Z,100.00
2022-09-01T17:09:23.062Z,100.00
2022-09-01T17:11:54.727Z,100.00
2022-09-01T17:14:31.725Z,100.00
2022-09-01T17:17:08.232Z,100.00
2022-09-01T17:19:38.940Z,100.00
2022-09-01T17:22:08.537Z,100.00
2022-09-01T17:24:39.649Z,100.00
2022-09-01T17:27:15.055Z,100.00
2022-09-01T17:29:46.764Z,100.00
2022-09-01T17:32:30.956Z,100.00
2022-09-01T17:35:11.239Z,100.00
2022-09-01T17:37:56.942Z,100.00
2022-09-01T17:40:35.506Z,100.00
2022-09-01T17:43:13.373Z,100.00
2022-09-01T17:45:54.110Z,100.00
2022-09-01T17:48:30.756Z,100.00
2022-09-01T17:51:13.817Z,100.00
2022-09-01T17:53:51.102Z,100.00
2022-09-01T17:56:37.236Z,100.00
2022-09-01T17:59:15.084Z,100.00
2022-09-01T18:01:54.473Z,100.00
2022-09-01T18:04:39.594Z,100.00
2022-09-01T18:07:16.900Z,100.00
2022-09-01T18:09:48.201Z,100.00
2022-09-01T18:12:19.981Z,100.00
2022-09-01T18:14:57.840Z,100.00
2022-09-01T18:17:31.366Z,100.00
2022-09-01T18:20:08.419Z,100.00
2022-09-01T18:22:44.169Z,100.00
2022-09-01T18:25:19.336Z,100.00
2022-09-01T18:27:47.991Z,100.00
2022-09-01T18:30:36.273Z,100.00
2022-09-01T18:33:20.612Z,100.00
2022-09-01T18:35:56.106Z,100.00
2022-09-01T18:38:34.301Z,100.00
2022-09-01T18:41:18.795Z,100.00
2022-09-01T18:43:57.176Z,100.00
2022-09-01T18:46:38.396Z,100.00
2022-09-01T18:49:16.834Z,100.00
2022-09-01T18:51:57.040Z,100.00
2022-09-01T18:54:34.520Z,100.00
2022-09-01T18:57:04.456Z,100.00
2022-09-01T19:00:02.988Z,100.00
2022-09-01T19:03:10.146Z,100.00
2022-09-01T19:05:51.538Z,100.00
2022-09-01T19:08:28.224Z,100.00
2022-09-01T19:11:02.598Z,100.00
2022-09-01T19:13:44.794Z,100.00
2022-09-01T19:16:21.827Z,100.00
2022-09-01T19:19:01.865Z,100.00
2022-09-01T19:21:32.405Z,100.00
2022-09-01T19:24:07.527Z,100.00
2022-09-01T19:26:41.354Z,100.00
2022-09-01T19:29:13.316Z,100.00
2022-09-01T19:31:45.242Z,100.00
2022-09-01T19:34:16.652Z,100.00
2022-09-01T19:36:46.919Z,100.00
2022-09-01T19:39:17.988Z,100.00
2022-09-01T19:41:50.046Z,100.00
2022-09-01T19:44:28.023Z,100.00
2022-09-01T19:47:01.915Z,100.00
2022-09-01T19:49:40.306Z,100.00
2022-09-01T19:52:11.952Z,100.00
2022-09-01T19:54:50.481Z,100.00
2022-09-01T19:57:23.520Z,100.00
2022-09-01T19:59:59.170Z,100.00
2022-09-01T20:02:32.242Z,100.00
2022-09-01T20:05:08.371Z,100.00
2022-09-01T20:07:40.895Z,100.00
2022-09-01T20:10:23.194Z,100.00
2022-09-01T20:13:02.031Z,100.00
2022-09-01T20:15:35.618Z,100.00
2022-09-01T20:18:06.551Z,100.00
2022-09-01T20:20:40.153Z,100.00
2022-09-01T20:23:16.813Z,100.00
2022-09-01T20:25:49.544Z,100.00
2022-09-01T20:28:26.720Z,100.00
2022-09-01T20:30:59.329Z,100.00
2022-09-01T20:33:35.786Z,100.00
2022-09-01T20:36:09.958Z,100.00
2022-09-01T20:39:06.849Z,100.00
2022-09-01T20:41:42.873Z,100.00
2022-09-01T20:44:29.780Z,100.00
2022-09-01T20:46:58.779Z,100.00
2022-09-01T20:49:26.706Z,100.00
2022-09-01T20:52:01.938Z,100.00
2022-09-01T20:54:37.072Z,100.00
2022-09-01T20:57:17.730Z,100.00
2022-09-01T20:59:51.193Z,100.00
2022-09-01T21:02:31.925Z,100.00
2022-09-01T21:05:10.865Z,100.00
2022-09-01T21:07:47.940Z,100.00
2022-09-01T21:10:23.918Z,100.00
2022-09-01T21:12:54.663Z,100.00
2022-09-01T21:15:34.455Z,100.00
2022-09-01T21:18:15.247Z,100.00
2022-09-01T21:20:56.585Z,100.00
2022-09-01T21:23:28.510Z,100.00
2022-09-01T21:25:56.917Z,100.00
2022-09-01T21:28:27.838Z,100.00
2022-09-01T21:31:00.074Z,100.00
2022-09-01T21:33:33.152Z,100.00
2022-09-01T21:36:04.379Z,100.00
2022-09-01T21:38:36.838Z,100.00
2022-09-01T21:41:14.768Z,100.00
2022-09-01T21:43:47.377Z,100.00
2022-09-01T21:46:22.062Z,100.00
2022-09-01T21:48:51.546Z,100.00
2022-09-01T21:51:19.572Z,100.00
2022-09-01T21:53:50.563Z,100.00
2022-09-01T21:56:25.920Z,100.00
2022-09-01T21:59:08.133Z,100.00
2022-09-01T22:01:37.164Z,100.00
2022-09-01T22:04:08.786Z,100.00
2022-09-01T22:06:42.178Z,100.00
2022-09-01T22:09:21.711Z,100.00
2022-09-01T22:11:51.804Z,100.00
2022-09-01T22:14:33.406Z,100.00
2022-09-01T22:17:04.598Z,100.00
2022-09-01T22:19:36.280Z,100.00
2022-09-01T22:22:04.966Z,100.00
2022-09-01T22:24:35.700Z,100.00
2022-09-01T22:27:06.019Z,100.00
2022-09-01T22:29:52.983Z,100.00
2022-09-01T22:32:32.387Z,100.00
2022-09-01T22:35:03.688Z,100.00
2022-09-01T22:37:31.724Z,100.00
2022-09-01T22:40:06.441Z,100.00
2022-09-01T22:42:45.228Z,100.00
2022-09-01T22:45:18.701Z,100.00
2022-09-01T22:47:51.398Z,100.00
2022-09-01T22:50:21.849Z,100.00
2022-09-01T22:52:50.651Z,100.00
2022-09-01T22:55:30.488Z,100.00
2022-09-01T22:57:58.931Z,100.00
2022-09-01T23:00:26.957Z,100.00
2022-09-01T23:02:55.339Z,100.00
2022-09-01T23:05:27.668Z,100.00
2022-09-01T23:07:56.960Z,100.00
2022-09-01T23:10:30.838Z,100.00
2022-09-01T23:13:06.408Z,100.00
2022-09-01T23:15:36.179Z,100.00
2022-09-01T23:18:04.157Z,100.00
2022-09-01T23:20:33.661Z,100.00
2022-09-01T23:23:03.888Z,100.00
2022-09-01T23:25:33.150Z,100.00
2022-09-01T23:28:00.980Z,100.00
2022-09-01T23:30:28.879Z,100.00
2022-09-01T23:32:57.904Z,100.00
2022-09-01T23:35:26.866Z,100.00
2022-09-01T23:38:00.724Z,100.00
2022-09-01T23:40:37.236Z,100.00
2022-09-01T23:43:10.368Z,100.00
2022-09-01T23:45:44.103Z,100.00
2022-09-01T23:48:16.113Z,100.00
2022-09-01T23:50:48.542Z,100.00
2022-09-01T23:53:17.982Z,100.00
2022-09-01T23:55:58.663Z,100.00
2022-09-01T23:58:28.810Z,100.00
